Vallee-Jonction, Canada
Current Conditions -  °F | °C
As of 5:00 PM on Tuesday 21 Oct 2014 (Local Time) from CYQB Reporting Station
Broken Clouds Broken Clouds  
Wind Chill: 41°   Ceiling: 5200
Heat Index: 46°   Visibility: 30mi
Dew Point: 30°   Wind: 10mph
Humidity: 53%   Direction: 60°ENE
Pressure: 30.15"   Gusts: NA
Location:  46.37°N, 70.92°W
Report Text: CYQB 212100Z 06009KT 30SM BKN052 BKN240 08/M01 A3015 RMK SC6CI1 SLP214
Loading
Personal Weather Stations






























Interactive Weather Map
Tropical Storm Tracking
New forecast layout! Learn more

10-Day Weather Forecast

Advertisements
Track Severe Weather on mobile